createdAt,value
2022-09-16T00:00:08.743Z,14.78999996
2022-09-16T00:01:12.027Z,14.78999996
2022-09-16T00:02:12.338Z,14.78999996
2022-09-16T00:03:16.149Z,14.78999996
2022-09-16T00:04:13.414Z,14.77000046
2022-09-16T00:05:16.216Z,14.76000023
2022-09-16T00:06:10.675Z,14.76000023
2022-09-16T00:07:14.046Z,14.76000023
2022-09-16T00:08:16.163Z,14.76000023
2022-09-16T00:09:14.544Z,14.73999977
2022-09-16T00:10:17.391Z,14.71000004
2022-09-16T00:11:14.190Z,14.68999958
2022-09-16T00:12:18.295Z,14.68000031
2022-09-16T00:14:22.051Z,14.65999985
2022-09-16T00:15:21.459Z,14.64999962
2022-09-16T00:16:20.695Z,14.64999962
2022-09-16T00:17:22.136Z,14.64000034
2022-09-16T00:18:49.342Z,14.65999985
2022-09-16T00:19:28.632Z,14.67000008
2022-09-16T00:20:32.528Z,14.69999981
2022-09-16T00:21:33.512Z,14.69999981
2022-09-16T00:22:31.624Z,14.71000004
2022-09-16T00:24:32.684Z,14.68000031
2022-09-16T00:25:33.876Z,14.67000008
2022-09-16T00:26:39.840Z,14.67000008
2022-09-16T00:27:43.953Z,14.67000008
2022-09-16T00:28:41.387Z,14.64999962
2022-09-16T00:29:41.936Z,14.64000034
2022-09-16T00:30:37.266Z,14.63000011
2022-09-16T00:31:37.972Z,14.63000011
2022-09-16T00:33:47.005Z,14.64999962
2022-09-16T00:34:30.160Z,14.67000008
2022-09-16T00:35:31.916Z,14.68000031
2022-09-16T00:36:31.923Z,14.68999958
2022-09-16T00:37:27.284Z,14.68000031
2022-09-16T00:38:29.400Z,14.68000031
2022-09-16T00:39:28.838Z,14.67000008
2022-09-16T00:40:24.241Z,14.65999985
2022-09-16T00:41:24.158Z,14.64999962
2022-09-16T00:42:21.655Z,14.63000011
2022-09-16T00:44:20.354Z,14.63000011
2022-09-16T00:45:23.555Z,14.61999989
2022-09-16T00:46:19.064Z,14.60000038
2022-09-16T00:47:19.574Z,14.60000038
2022-09-16T00:49:23.923Z,14.60000038
2022-09-16T00:50:18.316Z,14.60999966
2022-09-16T00:51:19.202Z,14.60000038
2022-09-16T00:52:21.300Z,14.60000038
2022-09-16T00:53:15.446Z,14.60999966
2022-09-16T00:54:15.240Z,14.60999966
2022-09-16T00:55:11.029Z,14.60999966
2022-09-16T00:56:12.628Z,14.59000015
2022-09-16T00:57:11.729Z,14.56999969
2022-09-16T00:59:21.907Z,14.53999996
2022-09-16T01:00:20.363Z,14.52999973
2022-09-16T01:01:24.579Z,14.51000023
2022-09-16T01:02:22.775Z,14.51000023
2022-09-16T01:04:23.374Z,14.52000046
2022-09-16T01:05:15.891Z,14.52000046
2022-09-16T01:06:18.475Z,14.52999973
2022-09-16T01:07:11.552Z,14.52000046
2022-09-16T01:08:11.783Z,14.53999996
2022-09-16T01:09:06.673Z,14.53999996
2022-09-16T01:10:07.384Z,14.52999973
2022-09-16T01:11:07.460Z,14.52999973
2022-09-16T01:12:08.075Z,14.51000023
2022-09-16T01:13:15.075Z,14.52999973
2022-09-16T01:14:11.192Z,14.52000046
2022-09-16T01:15:58.206Z,14.56000042
2022-09-16T01:16:40.916Z,14.60000038
2022-09-16T01:18:47.091Z,14.63000011
2022-09-16T01:19:48.686Z,14.60000038
2022-09-16T01:20:47.855Z,14.57999992
2022-09-16T01:21:55.505Z,14.56999969
2022-09-16T01:23:53.366Z,14.52999973
2022-09-16T01:24:56.066Z,14.51000023
2022-09-16T01:25:52.393Z,14.5
2022-09-16T01:26:54.107Z,14.5
2022-09-16T01:27:50.232Z,14.5
2022-09-16T01:28:52.497Z,14.5
2022-09-16T01:29:55.197Z,14.48999977
2022-09-16T01:30:51.571Z,14.52999973
2022-09-16T01:31:58.889Z,14.53999996
2022-09-16T01:32:57.013Z,14.56000042
2022-09-16T01:34:03.976Z,14.52999973
2022-09-16T01:35:00.723Z,14.52000046
2022-09-16T01:36:06.927Z,14.51000023
2022-09-16T01:37:11.438Z,14.51000023
2022-09-16T01:38:06.771Z,14.52000046
2022-09-16T01:39:05.102Z,14.51000023
2022-09-16T01:40:07.007Z,14.5
2022-09-16T01:41:06.161Z,14.48999977
2022-09-16T01:42:07.903Z,14.47999954
2022-09-16T01:44:14.528Z,14.47999954
2022-09-16T01:45:14.353Z,14.44999981
2022-09-16T01:46:16.020Z,14.43000031
2022-09-16T01:47:26.286Z,14.39999962
2022-09-16T01:49:20.864Z,14.43000031
2022-09-16T01:50:21.071Z,14.40999985
2022-09-16T01:51:21.440Z,14.39999962
2022-09-16T01:52:31.707Z,14.38000011
2022-09-16T01:55:05.873Z,14.56999969
2022-09-16T01:57:16.481Z,15.09000015
2022-09-16T01:57:58.387Z,15.19999981
2022-09-16T01:58:55.631Z,15.18000031
2022-09-16T01:59:53.740Z,15.11999989
2022-09-16T02:00:48.352Z,15.03999996
2022-09-16T02:01:51.881Z,14.96000004
2022-09-16T02:03:50.585Z,14.84000015
2022-09-16T02:04:49.768Z,14.77999973
2022-09-16T02:05:48.051Z,14.72999954
2022-09-16T02:06:46.011Z,14.68999958
2022-09-16T02:08:40.113Z,14.64999962
2022-09-16T02:09:44.587Z,14.63000011
2022-09-16T02:10:37.040Z,14.60000038
2022-09-16T02:11:38.805Z,14.60000038
2022-09-16T02:12:40.567Z,14.59000015
2022-09-16T02:14:45.679Z,14.53999996
2022-09-16T02:15:44.247Z,14.52999973
2022-09-16T02:16:48.137Z,14.5
2022-09-16T02:18:46.341Z,14.47000027
2022-09-16T02:19:47.402Z,14.46000004
2022-09-16T02:20:49.670Z,14.44999981
2022-09-16T02:21:45.628Z,14.46000004
2022-09-16T02:22:49.737Z,14.47000027
2022-09-16T02:24:34.209Z,14.53999996
2022-09-16T02:25:36.570Z,14.52000046
2022-09-16T02:26:30.866Z,14.52000046
2022-09-16T02:27:30.226Z,14.52000046
2022-09-16T02:29:26.509Z,14.55000019
2022-09-16T02:30:24.370Z,14.53999996
2022-09-16T02:31:18.699Z,14.52000046
2022-09-16T02:32:16.218Z,14.51000023
2022-09-16T02:33:10.535Z,14.51000023
2022-09-16T02:34:08.789Z,14.48999977
2022-09-16T02:35:05.133Z,14.47999954
2022-09-16T02:35:58.602Z,14.47000027
2022-09-16T02:37:04.154Z,14.46000004
2022-09-16T02:38:00.027Z,14.47999954
2022-09-16T02:40:01.642Z,14.56999969
2022-09-16T02:40:44.178Z,14.63000011
2022-09-16T02:41:45.706Z,14.68999958
2022-09-16T02:42:58.497Z,14.84000015
2022-09-16T02:43:57.627Z,14.84000015
2022-09-16T02:44:58.827Z,14.78999996
2022-09-16T02:45:57.994Z,14.75
2022-09-16T02:46:58.652Z,14.68999958
2022-09-16T02:49:04.797Z,14.60000038
2022-09-16T02:49:59.185Z,14.57999992
2022-09-16T02:51:07.324Z,14.53999996
2022-09-16T02:52:05.292Z,14.51000023
2022-09-16T02:54:03.098Z,14.5
2022-09-16T02:55:02.150Z,14.47000027
2022-09-16T02:55:56.502Z,14.47000027
2022-09-16T02:56:52.708Z,14.43999958
2022-09-16T02:58:48.305Z,14.43999958
2022-09-16T02:59:51.943Z,14.40999985
2022-09-16T03:00:49.078Z,14.39000034
2022-09-16T03:01:52.360Z,14.39000034
2022-09-16T03:02:47.091Z,14.39999962
2022-09-16T03:03:46.861Z,14.39999962
2022-09-16T03:04:44.029Z,14.38000011
2022-09-16T03:05:45.278Z,14.36999989
2022-09-16T03:06:43.505Z,14.35000038
2022-09-16T03:07:42.146Z,14.34000015
2022-09-16T03:09:36.044Z,14.32999992
2022-09-16T03:10:31.216Z,14.32999992
2022-09-16T03:11:34.398Z,14.31000042
2022-09-16T03:12:26.501Z,14.31000042
2022-09-16T03:14:21.297Z,14.31000042
2022-09-16T03:15:20.096Z,14.30000019
2022-09-16T03:16:19.420Z,14.28999996
2022-09-16T03:17:21.733Z,14.27999973
2022-09-16T03:19:39.398Z,14.27999973
2022-09-16T03:20:20.454Z,14.30000019
2022-09-16T03:21:17.877Z,14.31000042
2022-09-16T03:22:17.753Z,14.31000042
2022-09-16T03:24:17.366Z,14.28999996
2022-09-16T03:25:14.604Z,14.27000046
2022-09-16T03:26:17.691Z,14.25
2022-09-16T03:27:13.087Z,14.23999977
2022-09-16T03:28:14.682Z,14.25
2022-09-16T03:29:10.007Z,14.22999954
2022-09-16T03:30:10.999Z,14.21000004
2022-09-16T03:31:07.369Z,14.19999981
2022-09-16T03:32:07.644Z,14.19999981
2022-09-16T03:34:07.334Z,14.21000004
2022-09-16T03:35:02.996Z,14.18999958
2022-09-16T03:36:04.918Z,14.18999958
2022-09-16T03:37:02.948Z,14.18000031
2022-09-16T03:39:00.527Z,14.15999985
2022-09-16T03:40:03.733Z,14.14000034
2022-09-16T03:40:59.055Z,14.14000034
2022-09-16T03:42:01.375Z,14.13000011
2022-09-16T03:43:04.681Z,14.14000034
2022-09-16T03:44:03.043Z,14.11999989
2022-09-16T03:44:59.183Z,14.14000034
2022-09-16T03:45:57.288Z,14.14000034
2022-09-16T03:46:57.066Z,14.14999962
2022-09-16T03:47:52.326Z,14.14999962
2022-09-16T03:48:54.440Z,14.14000034
2022-09-16T03:49:56.318Z,14.11999989
2022-09-16T03:50:52.880Z,14.10000038
2022-09-16T03:51:53.349Z,14.07999992
2022-09-16T03:53:53.871Z,14.10999966
2022-09-16T03:55:42.990Z,14.15999985
2022-09-16T03:56:29.535Z,14.17000008
2022-09-16T03:57:30.429Z,14.18999958
2022-09-16T03:58:34.867Z,14.19999981
2022-09-16T03:59:32.420Z,14.15999985
2022-09-16T04:00:36.452Z,14.14000034
2022-09-16T04:01:33.126Z,14.11999989
2022-09-16T04:02:35.044Z,14.10999966
2022-09-16T04:03:33.380Z,14.10000038
2022-09-16T04:04:33.473Z,14.09000015
2022-09-16T04:05:33.577Z,14.06999969
2022-09-16T04:06:35.672Z,14.05000019
2022-09-16T04:07:33.657Z,14.06999969
2022-09-16T04:09:30.758Z,14.06000042
2022-09-16T04:10:31.323Z,14.06000042
2022-09-16T04:11:30.587Z,14.03999996
2022-09-16T04:12:33.744Z,14.03999996
2022-09-16T04:14:33.289Z,14.01000023
2022-09-16T04:15:36.694Z,14
2022-09-16T04:16:34.819Z,13.97999954
2022-09-16T04:17:33.829Z,13.97999954
2022-09-16T04:19:33.656Z,13.94999981
2022-09-16T04:20:37.133Z,13.93999958
2022-09-16T04:21:31.747Z,13.93999958
2022-09-16T04:22:34.710Z,13.94999981
2022-09-16T04:24:35.832Z,13.96000004
2022-09-16T04:25:37.220Z,13.94999981
2022-09-16T04:26:40.171Z,13.93999958
2022-09-16T04:27:34.450Z,13.94999981
2022-09-16T04:28:36.569Z,14
2022-09-16T04:29:39.821Z,14.02999973
2022-09-16T04:30:38.382Z,14.02999973
2022-09-16T04:31:54.484Z,14.03999996
2022-09-16T04:32:35.902Z,14.05000019
2022-09-16T04:34:34.303Z,14.07999992
2022-09-16T04:35:29.518Z,14.07999992
2022-09-16T04:36:30.772Z,14.06000042
2022-09-16T04:37:27.276Z,14.05000019
2022-09-16T04:38:28.129Z,14.06000042
2022-09-16T04:39:23.587Z,14.02999973
2022-09-16T04:40:27.681Z,14.02999973
2022-09-16T04:41:22.800Z,14.02000046
2022-09-16T04:42:28.337Z,14.01000023
2022-09-16T04:44:25.686Z,14.02999973
2022-09-16T04:45:22.754Z,14.02000046
2022-09-16T04:46:22.602Z,14.02000046
2022-09-16T04:47:18.001Z,14.01000023
2022-09-16T04:49:23.311Z,14.02000046
2022-09-16T04:50:27.009Z,14.01000023
2022-09-16T04:51:30.328Z,13.98999977
2022-09-16T04:52:27.932Z,14
2022-09-16T04:53:27.222Z,14
2022-09-16T04:54:25.931Z,13.97999954
2022-09-16T04:55:26.781Z,13.97999954
2022-09-16T04:56:32.874Z,13.97000027
2022-09-16T04:57:35.817Z,13.96000004
2022-09-16T04:58:30.440Z,13.97999954
2022-09-16T04:59:29.103Z,13.97999954
2022-09-16T05:00:28.997Z,13.97999954
2022-09-16T05:01:25.767Z,13.97999954
2022-09-16T05:02:34.348Z,13.97999954
2022-09-16T05:04:30.679Z,13.94999981
2022-09-16T05:06:19.722Z,14.01000023
2022-09-16T05:06:20.804Z,14.01000023
2022-09-16T05:06:55.935Z,14.09000015
2022-09-16T05:09:02.801Z,14.18000031
2022-09-16T05:09:58.199Z,14.15999985
2022-09-16T05:10:57.694Z,14.14000034
2022-09-16T05:11:53.352Z,14.11999989
2022-09-16T05:13:48.573Z,14.10999966
2022-09-16T05:14:54.594Z,14.09000015
2022-09-16T05:15:51.297Z,14.07999992
2022-09-16T05:16:52.868Z,14.06000042
2022-09-16T05:18:50.764Z,14.10000038
2022-09-16T05:19:46.774Z,14.11999989
2022-09-16T05:20:47.004Z,14.11999989
2022-09-16T05:21:42.198Z,14.10000038
2022-09-16T05:22:42.154Z,14.10000038
2022-09-16T05:23:37.488Z,14.10000038
2022-09-16T05:24:44.491Z,14.07999992
2022-09-16T05:25:41.453Z,14.06000042
2022-09-16T05:26:41.834Z,14.05000019
2022-09-16T05:27:37.021Z,14.05000019
2022-09-16T05:29:36.947Z,14.05000019
2022-09-16T05:30:35.788Z,14.05000019
2022-09-16T05:31:30.273Z,14.05000019
2022-09-16T05:32:30.241Z,14.03999996
2022-09-16T05:34:22.267Z,14.03999996
2022-09-16T05:35:22.997Z,14.02999973
2022-09-16T05:36:17.289Z,14.02000046
2022-09-16T05:37:27.051Z,14.01000023
2022-09-16T05:39:24.867Z,14.02000046
2022-09-16T05:40:16.416Z,14.02000046
2022-09-16T05:41:19.264Z,14.03999996
2022-09-16T05:42:11.880Z,14.03999996
2022-09-16T05:44:14.172Z,14.06000042
2022-09-16T05:45:10.665Z,14.06999969
2022-09-16T05:46:57.623Z,14.10999966
2022-09-16T05:47:40.916Z,14.15999985
2022-09-16T05:49:47.305Z,14.15999985
2022-09-16T05:50:48.242Z,14.14000034
2022-09-16T05:51:46.293Z,14.10000038
2022-09-16T05:52:44.014Z,14.09000015
2022-09-16T05:53:46.311Z,14.09000015
2022-09-16T05:54:46.971Z,14.05000019
2022-09-16T05:55:43.457Z,14.05000019
2022-09-16T05:56:44.870Z,14.02999973
2022-09-16T05:57:42.036Z,14.02999973
2022-09-16T05:58:44.110Z,14.02999973
2022-09-16T05:59:46.355Z,14.02000046
2022-09-16T06:00:42.801Z,14.02999973
2022-09-16T06:01:44.637Z,14.02000046
2022-09-16T06:02:42.020Z,14.03999996
2022-09-16T06:04:41.552Z,14.03999996
2022-09-16T06:05:45.798Z,14.03999996
2022-09-16T06:06:40.605Z,14.03999996
2022-09-16T06:07:42.269Z,14.06000042
2022-09-16T06:09:41.550Z,14.05000019
2022-09-16T06:10:39.519Z,14.03999996
2022-09-16T06:11:39.544Z,14.02999973
2022-09-16T06:12:41.661Z,14.03999996
2022-09-16T06:14:39.958Z,14.03999996
2022-09-16T06:15:38.751Z,14.03999996
2022-09-16T06:16:42.776Z,14.03999996
2022-09-16T06:17:37.623Z,14.03999996
2022-09-16T06:18:44.954Z,14.06000042
2022-09-16T06:19:38.622Z,14.06000042
2022-09-16T06:20:38.931Z,14.06000042
2022-09-16T06:22:42.493Z,14.17000008
2022-09-16T06:24:21.135Z,14.26000023
2022-09-16T06:25:21.914Z,14.26000023
2022-09-16T06:26:16.372Z,14.25
2022-09-16T06:27:16.150Z,14.22999954
2022-09-16T06:28:11.337Z,14.22999954
2022-09-16T06:29:11.139Z,14.21000004
2022-09-16T06:30:06.439Z,14.18000031
2022-09-16T06:31:06.482Z,14.18000031
2022-09-16T06:32:00.911Z,14.15999985
2022-09-16T06:33:02.741Z,14.17000008
2022-09-16T06:33:57.972Z,14.17000008
2022-09-16T06:34:58.120Z,14.15999985
2022-09-16T06:35:53.375Z,14.14999962
2022-09-16T06:36:52.782Z,14.14999962
2022-09-16T06:37:48.101Z,14.15999985
2022-09-16T06:38:48.470Z,14.15999985
2022-09-16T06:39:48.640Z,14.14000034
2022-09-16T06:40:41.043Z,14.14999962
2022-09-16T06:41:47.934Z,14.14000034
2022-09-16T06:42:42.187Z,14.17000008
2022-09-16T06:44:44.837Z,14.15999985
2022-09-16T06:45:44.621Z,14.14000034
2022-09-16T06:46:40.004Z,14.14000034
2022-09-16T06:47:41.950Z,14.14000034
2022-09-16T06:48:38.451Z,14.14999962
2022-09-16T06:49:41.237Z,14.14000034
2022-09-16T06:50:33.896Z,14.14999962
2022-09-16T06:51:31.000Z,14.14999962
2022-09-16T06:52:30.554Z,14.14000034
2022-09-16T06:54:24.281Z,14.14000034
2022-09-16T06:55:28.602Z,14.10999966
2022-09-16T06:56:31.400Z,14.13000011
2022-09-16T06:57:23.497Z,14.10999966
2022-09-16T06:59:20.133Z,14.14000034
2022-09-16T07:01:04.361Z,14.21000004
2022-09-16T07:01:48.413Z,14.28999996
2022-09-16T07:02:46.746Z,14.31999969
2022-09-16T07:03:45.793Z,14.32999992
2022-09-16T07:04:41.059Z,14.31999969
2022-09-16T07:05:39.638Z,14.31000042
2022-09-16T07:07:08.134Z,14.28999996
2022-09-16T07:07:34.804Z,14.32999992
2022-09-16T07:09:27.501Z,14.39000034
2022-09-16T07:10:27.057Z,14.38000011
2022-09-16T07:11:22.652Z,14.39000034
2022-09-16T07:12:23.456Z,14.39000034
2022-09-16T07:14:18.356Z,14.38000011
2022-09-16T07:15:13.682Z,14.36999989
2022-09-16T07:16:14.503Z,14.36999989
2022-09-16T07:17:09.662Z,14.36999989
2022-09-16T07:18:11.042Z,14.38000011
2022-09-16T07:19:04.669Z,14.38000011
2022-09-16T07:20:05.653Z,14.38000011
2022-09-16T07:21:00.431Z,14.38000011
2022-09-16T07:22:00.341Z,14.36999989
2022-09-16T07:22:59.440Z,14.38000011
2022-09-16T07:23:54.570Z,14.39000034
2022-09-16T07:24:56.235Z,14.39999962
2022-09-16T07:25:51.188Z,14.40999985
2022-09-16T07:26:53.197Z,14.44999981
2022-09-16T07:27:45.644Z,14.46000004
2022-09-16T07:29:44.487Z,14.47999954
2022-09-16T07:30:37.190Z,14.47999954
2022-09-16T07:31:39.203Z,14.5
2022-09-16T07:33:23.271Z,14.60999966
2022-09-16T07:34:04.432Z,14.65999985
2022-09-16T07:35:00.318Z,14.69999981
2022-09-16T07:35:59.995Z,14.69999981
2022-09-16T07:36:55.261Z,14.69999981
2022-09-16T07:38:50.239Z,14.68000031
2022-09-16T07:39:50.960Z,14.67000008
2022-09-16T07:40:46.121Z,14.65999985
2022-09-16T07:41:47.609Z,14.64999962
2022-09-16T07:42:40.047Z,14.64999962
2022-09-16T07:43:44.245Z,14.67000008
2022-09-16T07:44:38.753Z,14.67000008
2022-09-16T07:45:36.293Z,14.67000008
2022-09-16T07:46:38.811Z,14.67000008
2022-09-16T07:47:31.129Z,14.67000008
2022-09-16T07:48:35.079Z,14.68999958
2022-09-16T07:49:30.401Z,14.72999954
2022-09-16T07:50:22.865Z,14.75
2022-09-16T07:51:25.734Z,14.80000019
2022-09-16T07:52:18.185Z,14.86999989
2022-09-16T07:54:13.709Z,14.96000004
2022-09-16T07:55:16.288Z,14.97999954
2022-09-16T07:56:09.022Z,14.98999977
2022-09-16T07:57:11.288Z,15.01000023
2022-09-16T07:58:03.656Z,15.01000023
2022-09-16T07:59:03.575Z,15.02999973
2022-09-16T07:59:58.856Z,15.02000046
2022-09-16T08:01:04.005Z,15.05000019
2022-09-16T08:01:05.167Z,15.05000019
2022-09-16T08:01:57.602Z,15.07999992
2022-09-16T08:03:55.925Z,15.11999989
2022-09-16T08:04:51.066Z,15.10999966
2022-09-16T08:05:50.580Z,15.10000038
2022-09-16T08:06:45.878Z,15.09000015
2022-09-16T08:07:43.246Z,15.09000015
2022-09-16T08:08:42.881Z,15.09000015
2022-09-16T08:10:07.744Z,15.10999966
2022-09-16T08:10:48.165Z,15.15999985
2022-09-16T08:11:47.271Z,15.22999954
2022-09-16T08:12:46.641Z,15.27000046
2022-09-16T08:13:43.196Z,15.28999996
2022-09-16T08:14:45.201Z,15.35999966
2022-09-16T08:15:42.131Z,15.43999958
2022-09-16T08:16:43.466Z,15.52000046
2022-09-16T08:17:39.909Z,15.56999969
2022-09-16T08:19:38.417Z,15.69999981
2022-09-16T08:20:43.154Z,15.77999973
2022-09-16T08:21:36.831Z,15.85999966
2022-09-16T08:22:36.649Z,15.85999966
2022-09-16T08:23:38.213Z,15.89000034
2022-09-16T08:24:35.575Z,15.94999981
2022-09-16T08:25:37.720Z,16.02000046
2022-09-16T08:26:35.141Z,16.09000015
2022-09-16T08:27:36.266Z,16.09000015
2022-09-16T08:28:40.162Z,16.04000092
2022-09-16T08:28:51.063Z,16.04000092
2022-09-16T08:29:04.670Z,16.04000092
2022-09-16T08:29:34.775Z,16.06999969
2022-09-16T08:30:31.354Z,16.12999916
2022-09-16T08:31:34.184Z,16.15999985
2022-09-16T08:32:30.632Z,16.15999985
2022-09-16T08:33:32.091Z,16.13999939
2022-09-16T08:34:29.430Z,16.13999939
2022-09-16T08:35:31.067Z,16.19000053
2022-09-16T08:36:27.182Z,16.20999908
2022-09-16T08:37:29.927Z,16.19000053
2022-09-16T08:38:24.121Z,16.17000008
2022-09-16T08:39:26.750Z,16.14999962
2022-09-16T08:41:20.368Z,16.10000038
2022-09-16T08:42:15.630Z,16.06999969
2022-09-16T08:44:14.509Z,16
2022-09-16T08:45:10.247Z,15.97000027
2022-09-16T08:46:13.622Z,15.94999981
2022-09-16T08:47:07.189Z,15.97000027
2022-09-16T08:48:10.461Z,16
2022-09-16T08:49:04.155Z,16.03000069
2022-09-16T08:50:43.445Z,16.19000053
2022-09-16T08:51:42.639Z,16.47999954
2022-09-16T08:52:39.934Z,16.67000008
2022-09-16T08:55:19.085Z,16.79000092
2022-09-16T08:57:30.365Z,17.14999962
2022-09-16T08:59:05.514Z,17.11000061
2022-09-16T09:00:04.263Z,17.02000046
2022-09-16T09:00:57.974Z,16.93000031
2022-09-16T09:01:57.257Z,16.80999947
2022-09-16T09:02:50.821Z,16.69000053
2022-09-16T09:03:48.888Z,16.61000061
2022-09-16T09:04:42.043Z,16.54000092
2022-09-16T09:05:41.549Z,16.45999908
2022-09-16T09:06:36.782Z,16.37999916
2022-09-16T09:07:36.980Z,16.30999947
2022-09-16T09:09:26.602Z,16.25
2022-09-16T09:10:20.763Z,16.20999908
2022-09-16T09:11:15.714Z,16.18000031
2022-09-16T09:12:16.862Z,16.15999985
2022-09-16T09:13:08.638Z,16.15999985
2022-09-16T09:14:06.186Z,16.19000053
2022-09-16T09:15:01.051Z,16.20999908
2022-09-16T09:15:58.442Z,16.20000076
2022-09-16T09:16:55.307Z,16.18000031
2022-09-16T09:17:48.650Z,16.17000008
2022-09-16T09:19:39.837Z,16.10000038
2022-09-16T09:20:37.789Z,16.07999992
2022-09-16T09:21:30.809Z,16.05999947
2022-09-16T09:22:27.714Z,16.03000069
2022-09-16T09:24:18.935Z,15.98999977
2022-09-16T09:25:19.380Z,15.97000027
2022-09-16T09:26:10.545Z,15.97000027
2022-09-16T09:27:11.226Z,15.94999981
2022-09-16T09:28:02.287Z,15.96000004
2022-09-16T09:29:00.153Z,15.94999981
2022-09-16T09:29:53.527Z,15.93999958
2022-09-16T09:30:51.251Z,15.92000008
2022-09-16T09:31:44.732Z,15.89000034
2022-09-16T09:32:49.424Z,15.88000011
2022-09-16T09:34:24.373Z,15.93999958
2022-09-16T09:35:25.683Z,16.04000092
2022-09-16T09:36:18.059Z,16.12999916
2022-09-16T09:37:19.976Z,16.22999954
2022-09-16T09:38:12.598Z,16.29999924
2022-09-16T09:39:51.607Z,16.47999954
2022-09-16T09:42:04.182Z,16.68000031
2022-09-16T09:42:45.407Z,16.72999954
2022-09-16T09:44:44.512Z,16.89999962
2022-09-16T09:45:46.118Z,16.97999954
2022-09-16T09:46:42.440Z,17.04000092
2022-09-16T09:47:41.075Z,17.03000069
2022-09-16T09:48:42.267Z,17.06999969
2022-09-16T09:49:38.595Z,17.09000015
2022-09-16T09:50:38.819Z,17.10000038
2022-09-16T09:51:35.263Z,17.10000038
2022-09-16T09:52:36.470Z,17.12000084
2022-09-16T09:54:31.338Z,17.18000031
2022-09-16T09:55:31.553Z,17.19000053
2022-09-16T09:56:26.920Z,17.18000031
2022-09-16T09:57:26.651Z,17.12999916
2022-09-16T09:58:21.993Z,17.09000015
2022-09-16T09:59:19.457Z,17.04999924
2022-09-16T10:00:19.402Z,17.01000023
2022-09-16T10:01:14.369Z,16.97999954
2022-09-16T10:02:12.048Z,16.94000053
2022-09-16T10:03:14.824Z,16.88999939
2022-09-16T10:04:10.202Z,16.86000061
2022-09-16T10:05:07.799Z,16.82999992
2022-09-16T10:06:07.567Z,16.79999924
2022-09-16T10:08:58.005Z,16.76000023
2022-09-16T10:09:55.924Z,16.77000046
2022-09-16T10:11:22.790Z,16.82999992
2022-09-16T10:13:06.447Z,17.04999924
2022-09-16T10:14:42.401Z,17.14999962
2022-09-16T10:15:41.957Z,17.12000084
2022-09-16T10:16:35.924Z,17.07999992
2022-09-16T10:17:34.650Z,17
2022-09-16T10:18:31.974Z,16.92000008
2022-09-16T10:19:30.894Z,16.87000084
2022-09-16T10:20:26.116Z,16.84000015
2022-09-16T10:21:26.051Z,16.79000092
2022-09-16T10:22:20.261Z,16.75
2022-09-16T10:23:22.902Z,16.70999908
2022-09-16T10:24:20.267Z,16.69000053
2022-09-16T10:25:11.857Z,16.70000076
2022-09-16T10:26:13.404Z,16.69000053
2022-09-16T10:27:06.987Z,16.69000053
2022-09-16T10:28:05.254Z,16.69000053
2022-09-16T10:29:00.580Z,16.70000076
2022-09-16T10:29:55.958Z,16.70000076
2022-09-16T10:30:55.995Z,16.70000076
2022-09-16T10:31:50.666Z,16.70000076
2022-09-16T10:32:49.105Z,16.68000031
2022-09-16T10:33:44.523Z,16.68000031
2022-09-16T10:34:48.484Z,16.65999985
2022-09-16T10:35:42.728Z,16.65999985
2022-09-16T10:36:39.876Z,16.63999939
2022-09-16T10:37:35.465Z,16.59000015
2022-09-16T10:38:34.008Z,16.57999992
2022-09-16T10:39:33.869Z,16.54999924
2022-09-16T10:40:26.293Z,16.55999947
2022-09-16T10:41:27.537Z,16.53000069
2022-09-16T10:42:20.922Z,16.54999924
2022-09-16T10:43:18.895Z,16.60000038
2022-09-16T10:44:17.186Z,16.62999916
2022-09-16T10:45:50.455Z,16.72999954
2022-09-16T10:46:46.246Z,16.84000015
2022-09-16T10:47:46.828Z,16.84000015
2022-09-16T10:49:23.718Z,16.82999992
2022-09-16T10:50:03.724Z,16.82999992
2022-09-16T10:51:01.904Z,16.81999969
2022-09-16T10:52:00.713Z,16.76000023
2022-09-16T10:52:56.272Z,16.70999908
2022-09-16T10:54:50.860Z,16.62000084
2022-09-16T10:55:49.934Z,16.59000015
2022-09-16T10:56:42.473Z,16.54999924
2022-09-16T10:57:42.253Z,16.53000069
2022-09-16T10:58:37.992Z,16.5
2022-09-16T10:59:37.653Z,16.46999931
2022-09-16T11:00:32.202Z,16.45000076
2022-09-16T11:01:32.687Z,16.43000031
2022-09-16T11:02:26.579Z,16.40999985
2022-09-16T11:03:28.580Z,16.39999962
2022-09-16T11:04:20.933Z,16.38999939
2022-09-16T11:05:25.540Z,16.38999939
2022-09-16T11:06:18.312Z,16.37999916
2022-09-16T11:07:13.386Z,16.40999985
2022-09-16T11:09:08.417Z,16.40999985
2022-09-16T11:10:10.976Z,16.43000031
2022-09-16T11:11:04.913Z,16.44000053
2022-09-16T11:12:05.381Z,16.45999908
2022-09-16T11:13:03.482Z,16.47999954
2022-09-16T11:13:56.121Z,16.52000046
2022-09-16T11:14:59.026Z,16.54000092
2022-09-16T11:15:51.587Z,16.55999947
2022-09-16T11:16:51.411Z,16.55999947
2022-09-16T11:17:46.828Z,16.57999992
2022-09-16T11:18:50.702Z,16.57999992
2022-09-16T11:18:53.030Z,16.57999992
2022-09-16T11:19:42.243Z,16.60000038
2022-09-16T11:20:45.993Z,16.61000061
2022-09-16T11:21:41.021Z,16.62999916
2022-09-16T11:22:35.793Z,16.63999939
2022-09-16T11:23:38.021Z,16.62999916
2022-09-16T11:24:30.851Z,16.63999939
2022-09-16T11:25:33.050Z,16.64999962
2022-09-16T11:26:56.804Z,16.64999962
2022-09-16T11:27:37.071Z,16.65999985
2022-09-16T11:28:36.376Z,16.69000053
2022-09-16T11:29:37.693Z,16.67000008
2022-09-16T11:30:33.127Z,16.64999962
2022-09-16T11:31:32.521Z,16.62999916
2022-09-16T11:32:28.460Z,16.57999992
2022-09-16T11:33:28.096Z,16.55999947
2022-09-16T11:34:24.127Z,16.54999924
2022-09-16T11:35:23.759Z,16.53000069
2022-09-16T11:36:20.248Z,16.52000046
2022-09-16T11:37:22.237Z,16.5
2022-09-16T11:39:14.410Z,16.48999977
2022-09-16T11:40:09.494Z,16.47999954
2022-09-16T11:41:08.963Z,16.42000008
2022-09-16T11:42:04.689Z,16.44000053
2022-09-16T11:43:04.645Z,16.45000076
2022-09-16T11:44:00.023Z,16.45999908
2022-09-16T11:44:59.632Z,16.43000031
2022-09-16T11:45:55.870Z,16.37999916
2022-09-16T11:46:57.023Z,16.36000061
2022-09-16T11:47:52.480Z,16.32999992
2022-09-16T11:49:48.983Z,16.28000069
2022-09-16T11:50:52.309Z,16.27000046
2022-09-16T11:51:44.948Z,16.27000046
2022-09-16T11:52:44.295Z,16.23999977
2022-09-16T11:53:45.542Z,16.23999977
2022-09-16T11:54:40.173Z,16.20000076
2022-09-16T11:55:40.102Z,16.19000053
2022-09-16T11:56:35.542Z,16.18000031
2022-09-16T11:57:36.240Z,16.18000031
2022-09-16T11:58:31.672Z,16.18000031